sensor_id;sensor_type;location;lat;lon;timestamp;P1;durP1;ratioP1;P2;durP2;ratioP2
12076;SDS011;12420;42.676;23.262;2023-06-10T00:01:38;22.93;;;19.83;;
12076;SDS011;12420;42.676;23.262;2023-06-10T00:04:05;16.67;;;14.97;;
12076;SDS011;12420;42.676;23.262;2023-06-10T00:06:32;10.93;;;9.83;;
12076;SDS011;12420;42.676;23.262;2023-06-10T00:09:02;8.10;;;7.30;;
12076;SDS011;12420;42.676;23.262;2023-06-10T00:11:31;7.93;;;6.80;;
12076;SDS011;12420;42.676;23.262;2023-06-10T00:13:57;8.10;;;6.13;;
12076;SDS011;12420;42.676;23.262;2023-06-10T00:16:26;7.40;;;6.70;;
12076;SDS011;12420;42.676;23.262;2023-06-10T00:18:53;9.13;;;8.23;;
12076;SDS011;12420;42.676;23.262;2023-06-10T00:21:25;8.53;;;7.67;;
12076;SDS011;12420;42.676;23.262;2023-06-10T00:23:52;7.77;;;7.07;;
12076;SDS011;12420;42.676;23.262;2023-06-10T00:26:20;8.03;;;7.23;;
12076;SDS011;12420;42.676;23.262;2023-06-10T00:28:47;8.40;;;6.60;;
12076;SDS011;12420;42.676;23.262;2023-06-10T00:31:14;8.03;;;7.23;;
12076;SDS011;12420;42.676;23.262;2023-06-10T00:33:43;10.00;;;7.43;;
12076;SDS011;12420;42.676;23.262;2023-06-10T00:36:09;8.37;;;7.53;;
12076;SDS011;12420;42.676;23.262;2023-06-10T00:38:36;8.73;;;7.90;;
12076;SDS011;12420;42.676;23.262;2023-06-10T00:41:03;11.23;;;7.57;;
12076;SDS011;12420;42.676;23.262;2023-06-10T00:43:30;8.87;;;7.90;;
12076;SDS011;12420;42.676;23.262;2023-06-10T00:45:57;7.93;;;7.30;;
12076;SDS011;12420;42.676;23.262;2023-06-10T00:48:23;10.00;;;7.07;;
12076;SDS011;12420;42.676;23.262;2023-06-10T00:50:52;8.40;;;7.13;;
12076;SDS011;12420;42.676;23.262;2023-06-10T00:53:19;8.03;;;6.97;;
12076;SDS011;12420;42.676;23.262;2023-06-10T00:55:48;7.93;;;7.23;;
12076;SDS011;12420;42.676;23.262;2023-06-10T00:58:15;7.90;;;7.20;;
12076;SDS011;12420;42.676;23.262;2023-06-10T01:00:42;9.23;;;8.00;;
12076;SDS011;12420;42.676;23.262;2023-06-10T01:03:10;8.57;;;7.77;;
12076;SDS011;12420;42.676;23.262;2023-06-10T01:05:37;10.97;;;7.17;;
12076;SDS011;12420;42.676;23.262;2023-06-10T01:08:09;10.37;;;7.37;;
12076;SDS011;12420;42.676;23.262;2023-06-10T01:10:45;10.33;;;7.57;;
12076;SDS011;12420;42.676;23.262;2023-06-10T01:13:20;8.50;;;7.60;;
12076;SDS011;12420;42.676;23.262;2023-06-10T01:15:49;8.83;;;7.57;;
12076;SDS011;12420;42.676;23.262;2023-06-10T01:18:17;7.90;;;7.20;;
12076;SDS011;12420;42.676;23.262;2023-06-10T01:20:44;7.50;;;6.80;;
12076;SDS011;12420;42.676;23.262;2023-06-10T01:23:14;8.50;;;7.10;;
12076;SDS011;12420;42.676;23.262;2023-06-10T01:25:43;13.13;;;7.70;;
12076;SDS011;12420;42.676;23.262;2023-06-10T01:28:13;7.83;;;7.10;;
12076;SDS011;12420;42.676;23.262;2023-06-10T01:30:46;7.97;;;6.87;;
12076;SDS011;12420;42.676;23.262;2023-06-10T01:33:25;8.13;;;6.27;;
12076;SDS011;12420;42.676;23.262;2023-06-10T01:35:54;8.20;;;6.70;;
12076;SDS011;12420;42.676;23.262;2023-06-10T01:38:24;7.23;;;6.60;;
12076;SDS011;12420;42.676;23.262;2023-06-10T01:40:52;7.70;;;6.53;;
12076;SDS011;12420;42.676;23.262;2023-06-10T01:43:21;6.53;;;6.03;;
12076;SDS011;12420;42.676;23.262;2023-06-10T01:45:48;9.13;;;5.80;;
12076;SDS011;12420;42.676;23.262;2023-06-10T01:48:16;6.70;;;6.10;;
12076;SDS011;12420;42.676;23.262;2023-06-10T01:50:43;6.60;;;6.07;;
12076;SDS011;12420;42.676;23.262;2023-06-10T01:53:10;6.77;;;6.17;;
12076;SDS011;12420;42.676;23.262;2023-06-10T01:55:38;6.33;;;5.77;;
12076;SDS011;12420;42.676;23.262;2023-06-10T01:58:05;7.87;;;6.37;;
12076;SDS011;12420;42.676;23.262;2023-06-10T02:00:32;6.80;;;6.20;;
12076;SDS011;12420;42.676;23.262;2023-06-10T02:03:00;7.10;;;6.40;;
12076;SDS011;12420;42.676;23.262;2023-06-10T02:05:27;7.37;;;5.60;;
12076;SDS011;12420;42.676;23.262;2023-06-10T02:07:54;8.40;;;6.03;;
12076;SDS011;12420;42.676;23.262;2023-06-10T02:10:21;6.50;;;5.90;;
12076;SDS011;12420;42.676;23.262;2023-06-10T02:12:49;6.60;;;6.00;;
12076;SDS011;12420;42.676;23.262;2023-06-10T02:15:16;6.83;;;6.23;;
12076;SDS011;12420;42.676;23.262;2023-06-10T02:17:44;6.90;;;6.20;;
12076;SDS011;12420;42.676;23.262;2023-06-10T02:20:11;8.37;;;5.80;;
12076;SDS011;12420;42.676;23.262;2023-06-10T02:22:38;7.77;;;6.03;;
12076;SDS011;12420;42.676;23.262;2023-06-10T02:25:06;6.17;;;5.57;;
12076;SDS011;12420;42.676;23.262;2023-06-10T02:27:34;6.50;;;5.83;;
12076;SDS011;12420;42.676;23.262;2023-06-10T02:30:02;6.67;;;6.03;;
12076;SDS011;12420;42.676;23.262;2023-06-10T02:32:31;6.10;;;5.60;;
12076;SDS011;12420;42.676;23.262;2023-06-10T02:35:11;7.50;;;6.33;;
12076;SDS011;12420;42.676;23.262;2023-06-10T02:37:39;6.80;;;5.40;;
12076;SDS011;12420;42.676;23.262;2023-06-10T02:40:06;7.57;;;5.33;;
12076;SDS011;12420;42.676;23.262;2023-06-10T02:42:35;6.20;;;5.60;;
12076;SDS011;12420;42.676;23.262;2023-06-10T02:45:05;7.40;;;5.27;;
12076;SDS011;12420;42.676;23.262;2023-06-10T02:47:32;6.33;;;5.60;;
12076;SDS011;12420;42.676;23.262;2023-06-10T02:49:59;7.20;;;5.67;;
12076;SDS011;12420;42.676;23.262;2023-06-10T02:52:26;7.10;;;5.80;;
12076;SDS011;12420;42.676;23.262;2023-06-10T02:54:53;7.80;;;5.87;;
12076;SDS011;12420;42.676;23.262;2023-06-10T02:57:20;6.40;;;5.70;;
12076;SDS011;12420;42.676;23.262;2023-06-10T02:59:47;9.33;;;5.90;;
12076;SDS011;12420;42.676;23.262;2023-06-10T03:02:15;6.90;;;6.20;;
12076;SDS011;12420;42.676;23.262;2023-06-10T03:04:42;9.27;;;7.03;;
12076;SDS011;12420;42.676;23.262;2023-06-10T03:07:10;9.73;;;6.23;;
12076;SDS011;12420;42.676;23.262;2023-06-10T03:09:37;7.00;;;6.30;;
12076;SDS011;12420;42.676;23.262;2023-06-10T03:12:04;7.73;;;6.03;;
12076;SDS011;12420;42.676;23.262;2023-06-10T03:14:32;8.43;;;6.90;;
12076;SDS011;12420;42.676;23.262;2023-06-10T03:17:01;7.50;;;6.73;;
12076;SDS011;12420;42.676;23.262;2023-06-10T03:19:31;7.72;;;6.80;;
12076;SDS011;12420;42.676;23.262;2023-06-10T03:22:06;6.27;;;5.77;;
12076;SDS011;12420;42.676;23.262;2023-06-10T03:24:34;8.83;;;7.43;;
12076;SDS011;12420;42.676;23.262;2023-06-10T03:27:06;8.70;;;7.87;;
12076;SDS011;12420;42.676;23.262;2023-06-10T03:29:39;8.90;;;8.07;;
12076;SDS011;12420;42.676;23.262;2023-06-10T03:32:06;8.70;;;8.00;;
12076;SDS011;12420;42.676;23.262;2023-06-10T03:34:35;9.30;;;8.30;;
12076;SDS011;12420;42.676;23.262;2023-06-10T03:37:02;8.97;;;8.10;;
12076;SDS011;12420;42.676;23.262;2023-06-10T03:39:32;12.03;;;8.20;;
12076;SDS011;12420;42.676;23.262;2023-06-10T03:41:59;11.17;;;7.93;;
12076;SDS011;12420;42.676;23.262;2023-06-10T03:44:26;7.80;;;7.10;;
12076;SDS011;12420;42.676;23.262;2023-06-10T03:46:52;8.50;;;7.70;;
12076;SDS011;12420;42.676;23.262;2023-06-10T03:49:19;8.40;;;7.30;;
12076;SDS011;12420;42.676;23.262;2023-06-10T03:51:48;8.67;;;7.40;;
12076;SDS011;12420;42.676;23.262;2023-06-10T03:54:15;6.87;;;6.27;;
12076;SDS011;12420;42.676;23.262;2023-06-10T03:56:41;7.87;;;6.73;;
12076;SDS011;12420;42.676;23.262;2023-06-10T03:59:09;7.87;;;7.17;;
12076;SDS011;12420;42.676;23.262;2023-06-10T04:01:35;8.23;;;6.80;;
12076;SDS011;12420;42.676;23.262;2023-06-10T04:04:06;7.90;;;6.70;;
12076;SDS011;12420;42.676;23.262;2023-06-10T04:06:33;9.20;;;7.47;;
12076;SDS011;12420;42.676;23.262;2023-06-10T04:09:01;9.83;;;7.40;;
12076;SDS011;12420;42.676;23.262;2023-06-10T04:11:28;7.47;;;6.77;;
12076;SDS011;12420;42.676;23.262;2023-06-10T04:13:55;7.57;;;6.80;;
12076;SDS011;12420;42.676;23.262;2023-06-10T04:16:22;7.10;;;6.50;;
12076;SDS011;12420;42.676;23.262;2023-06-10T04:18:49;7.63;;;6.90;;
12076;SDS011;12420;42.676;23.262;2023-06-10T04:21:16;8.93;;;7.53;;
12076;SDS011;12420;42.676;23.262;2023-06-10T04:23:43;9.70;;;7.40;;
12076;SDS011;12420;42.676;23.262;2023-06-10T04:26:11;8.53;;;7.83;;
12076;SDS011;12420;42.676;23.262;2023-06-10T04:28:38;8.03;;;7.20;;
12076;SDS011;12420;42.676;23.262;2023-06-10T04:31:05;12.00;;;7.70;;
12076;SDS011;12420;42.676;23.262;2023-06-10T04:33:31;9.43;;;7.87;;
12076;SDS011;12420;42.676;23.262;2023-06-10T04:36:01;8.10;;;7.40;;
12076;SDS011;12420;42.676;23.262;2023-06-10T04:38:28;8.43;;;7.63;;
12076;SDS011;12420;42.676;23.262;2023-06-10T04:40:56;9.53;;;7.90;;
12076;SDS011;12420;42.676;23.262;2023-06-10T04:43:24;8.30;;;7.50;;
12076;SDS011;12420;42.676;23.262;2023-06-10T04:45:50;9.93;;;8.40;;
12076;SDS011;12420;42.676;23.262;2023-06-10T04:48:17;14.27;;;8.47;;
12076;SDS011;12420;42.676;23.262;2023-06-10T04:50:44;9.47;;;8.10;;
12076;SDS011;12420;42.676;23.262;2023-06-10T04:53:11;8.37;;;7.67;;
12076;SDS011;12420;42.676;23.262;2023-06-10T04:55:37;8.70;;;7.70;;
12076;SDS011;12420;42.676;23.262;2023-06-10T04:58:04;7.67;;;7.07;;
12076;SDS011;12420;42.676;23.262;2023-06-10T05:00:33;8.77;;;7.27;;
12076;SDS011;12420;42.676;23.262;2023-06-10T05:02:59;7.80;;;6.53;;
12076;SDS011;12420;42.676;23.262;2023-06-10T05:05:26;8.17;;;7.53;;
12076;SDS011;12420;42.676;23.262;2023-06-10T05:07:53;8.73;;;7.37;;
12076;SDS011;12420;42.676;23.262;2023-06-10T05:10:20;10.87;;;8.23;;
12076;SDS011;12420;42.676;23.262;2023-06-10T05:12:47;7.78;;;7.00;;
12076;SDS011;12420;42.676;23.262;2023-06-10T05:15:13;8.23;;;7.43;;
12076;SDS011;12420;42.676;23.262;2023-06-10T05:17:42;8.57;;;7.27;;
12076;SDS011;12420;42.676;23.262;2023-06-10T05:20:09;13.47;;;6.67;;
12076;SDS011;12420;42.676;23.262;2023-06-10T05:22:38;7.40;;;6.53;;
12076;SDS011;12420;42.676;23.262;2023-06-10T05:25:06;8.30;;;5.93;;
12076;SDS011;12420;42.676;23.262;2023-06-10T05:27:33;7.20;;;6.60;;
12076;SDS011;12420;42.676;23.262;2023-06-10T05:30:00;7.07;;;6.33;;
12076;SDS011;12420;42.676;23.262;2023-06-10T05:32:26;9.53;;;6.17;;
12076;SDS011;12420;42.676;23.262;2023-06-10T05:34:54;7.00;;;6.30;;
12076;SDS011;12420;42.676;23.262;2023-06-10T05:37:21;7.70;;;7.00;;
12076;SDS011;12420;42.676;23.262;2023-06-10T05:39:48;7.63;;;6.80;;
12076;SDS011;12420;42.676;23.262;2023-06-10T05:42:15;6.47;;;5.87;;
12076;SDS011;12420;42.676;23.262;2023-06-10T05:44:41;6.87;;;6.27;;
12076;SDS011;12420;42.676;23.262;2023-06-10T05:47:08;8.10;;;6.20;;
12076;SDS011;12420;42.676;23.262;2023-06-10T05:49:35;5.83;;;5.40;;
12076;SDS011;12420;42.676;23.262;2023-06-10T05:52:03;7.37;;;5.37;;
12076;SDS011;12420;42.676;23.262;2023-06-10T05:54:30;9.83;;;5.87;;
12076;SDS011;12420;42.676;23.262;2023-06-10T05:56:58;6.67;;;5.90;;
12076;SDS011;12420;42.676;23.262;2023-06-10T05:59:25;7.33;;;5.60;;
12076;SDS011;12420;42.676;23.262;2023-06-10T06:01:51;6.80;;;6.03;;
12076;SDS011;12420;42.676;23.262;2023-06-10T06:04:18;6.80;;;6.20;;
12076;SDS011;12420;42.676;23.262;2023-06-10T06:06:45;6.63;;;5.90;;
12076;SDS011;12420;42.676;23.262;2023-06-10T06:09:13;5.93;;;5.33;;
12076;SDS011;12420;42.676;23.262;2023-06-10T06:11:40;9.37;;;5.27;;
12076;SDS011;12420;42.676;23.262;2023-06-10T06:14:07;5.97;;;5.00;;
12076;SDS011;12420;42.676;23.262;2023-06-10T06:16:34;8.50;;;4.97;;
12076;SDS011;12420;42.676;23.262;2023-06-10T06:19:02;6.30;;;5.70;;
12076;SDS011;12420;42.676;23.262;2023-06-10T06:21:28;6.60;;;5.23;;
12076;SDS011;12420;42.676;23.262;2023-06-10T06:23:55;6.17;;;4.87;;
12076;SDS011;12420;42.676;23.262;2023-06-10T06:26:24;6.00;;;5.40;;
12076;SDS011;12420;42.676;23.262;2023-06-10T06:28:52;5.87;;;5.30;;
12076;SDS011;12420;42.676;23.262;2023-06-10T06:31:18;6.20;;;5.70;;
12076;SDS011;12420;42.676;23.262;2023-06-10T06:33:45;8.87;;;5.87;;
12076;SDS011;12420;42.676;23.262;2023-06-10T06:36:12;7.20;;;5.10;;
12076;SDS011;12420;42.676;23.262;2023-06-10T06:38:39;5.40;;;4.90;;
12076;SDS011;12420;42.676;23.262;2023-06-10T06:41:05;7.57;;;4.90;;
12076;SDS011;12420;42.676;23.262;2023-06-10T06:43:33;5.80;;;4.47;;
12076;SDS011;12420;42.676;23.262;2023-06-10T06:46:00;5.37;;;4.43;;
12076;SDS011;12420;42.676;23.262;2023-06-10T06:48:27;4.60;;;4.20;;
12076;SDS011;12420;42.676;23.262;2023-06-10T06:50:54;4.97;;;4.50;;
12076;SDS011;12420;42.676;23.262;2023-06-10T06:53:24;5.10;;;4.70;;
12076;SDS011;12420;42.676;23.262;2023-06-10T06:55:52;5.07;;;4.67;;
12076;SDS011;12420;42.676;23.262;2023-06-10T06:58:19;5.10;;;4.70;;
12076;SDS011;12420;42.676;23.262;2023-06-10T07:00:47;5.03;;;4.53;;
12076;SDS011;12420;42.676;23.262;2023-06-10T07:03:17;5.40;;;4.53;;
12076;SDS011;12420;42.676;23.262;2023-06-10T07:05:44;6.87;;;4.80;;
12076;SDS011;12420;42.676;23.262;2023-06-10T07:08:10;6.77;;;4.93;;
12076;SDS011;12420;42.676;23.262;2023-06-10T07:10:37;4.77;;;4.37;;
12076;SDS011;12420;42.676;23.262;2023-06-10T07:13:04;5.17;;;4.50;;
12076;SDS011;12420;42.676;23.262;2023-06-10T07:15:31;4.73;;;4.33;;
12076;SDS011;12420;42.676;23.262;2023-06-10T07:18:00;6.80;;;4.50;;
12076;SDS011;12420;42.676;23.262;2023-06-10T07:20:26;4.77;;;4.27;;
12076;SDS011;12420;42.676;23.262;2023-06-10T07:22:53;4.67;;;4.23;;
12076;SDS011;12420;42.676;23.262;2023-06-10T07:25:20;5.00;;;4.10;;
12076;SDS011;12420;42.676;23.262;2023-06-10T07:27:47;5.90;;;4.50;;
12076;SDS011;12420;42.676;23.262;2023-06-10T07:30:14;4.40;;;4.00;;
12076;SDS011;12420;42.676;23.262;2023-06-10T07:32:40;4.90;;;4.40;;
12076;SDS011;12420;42.676;23.262;2023-06-10T07:35:10;4.10;;;3.70;;
12076;SDS011;12420;42.676;23.262;2023-06-10T07:37:37;7.73;;;3.83;;
12076;SDS011;12420;42.676;23.262;2023-06-10T07:40:04;5.67;;;3.60;;
12076;SDS011;12420;42.676;23.262;2023-06-10T07:42:32;7.13;;;4.13;;
12076;SDS011;12420;42.676;23.262;2023-06-10T07:45:00;5.37;;;4.30;;
12076;SDS011;12420;42.676;23.262;2023-06-10T07:47:28;4.93;;;3.90;;
12076;SDS011;12420;42.676;23.262;2023-06-10T07:49:55;4.57;;;4.17;;
12076;SDS011;12420;42.676;23.262;2023-06-10T07:52:23;4.53;;;4.13;;
12076;SDS011;12420;42.676;23.262;2023-06-10T07:54:51;4.00;;;3.60;;
12076;SDS011;12420;42.676;23.262;2023-06-10T07:57:18;6.90;;;4.00;;
12076;SDS011;12420;42.676;23.262;2023-06-10T07:59:45;4.43;;;4.03;;
12076;SDS011;12420;42.676;23.262;2023-06-10T08:02:12;4.50;;;4.10;;
12076;SDS011;12420;42.676;23.262;2023-06-10T08:04:38;3.87;;;3.57;;
12076;SDS011;12420;42.676;23.262;2023-06-10T08:07:05;5.70;;;3.60;;
12076;SDS011;12420;42.676;23.262;2023-06-10T08:09:33;4.90;;;3.77;;
12076;SDS011;12420;42.676;23.262;2023-06-10T08:12:01;4.83;;;3.70;;
12076;SDS011;12420;42.676;23.262;2023-06-10T08:14:28;5.47;;;4.27;;
12076;SDS011;12420;42.676;23.262;2023-06-10T08:16:54;5.37;;;3.93;;
12076;SDS011;12420;42.676;23.262;2023-06-10T08:19:21;7.93;;;3.80;;
12076;SDS011;12420;42.676;23.262;2023-06-10T08:21:48;4.47;;;3.90;;
12076;SDS011;12420;42.676;23.262;2023-06-10T08:24:15;4.17;;;3.77;;
12076;SDS011;12420;42.676;23.262;2023-06-10T08:26:45;3.83;;;3.53;;
12076;SDS011;12420;42.676;23.262;2023-06-10T08:29:12;4.20;;;3.80;;
12076;SDS011;12420;42.676;23.262;2023-06-10T08:31:40;4.83;;;4.07;;
12076;SDS011;12420;42.676;23.262;2023-06-10T08:34:09;3.78;;;3.47;;
12076;SDS011;12420;42.676;23.262;2023-06-10T08:36:37;4.23;;;3.93;;
12076;SDS011;12420;42.676;23.262;2023-06-10T08:39:03;6.63;;;4.60;;
12076;SDS011;12420;42.676;23.262;2023-06-10T08:41:30;4.72;;;4.15;;
12076;SDS011;12420;42.676;23.262;2023-06-10T08:44:03;5.53;;;4.38;;
12076;SDS011;12420;42.676;23.262;2023-06-10T08:46:39;4.85;;;4.03;;
12076;SDS011;12420;42.676;23.262;2023-06-10T08:49:11;4.97;;;4.15;;
12076;SDS011;12420;42.676;23.262;2023-06-10T08:51:45;4.47;;;4.07;;
12076;SDS011;12420;42.676;23.262;2023-06-10T08:54:17;7.00;;;4.10;;
12076;SDS011;12420;42.676;23.262;2023-06-10T08:56:51;5.15;;;3.88;;
12076;SDS011;12420;42.676;23.262;2023-06-10T08:59:23;5.03;;;4.20;;
12076;SDS011;12420;42.676;23.262;2023-06-10T09:01:51;3.92;;;3.63;;
12076;SDS011;12420;42.676;23.262;2023-06-10T09:04:18;10.13;;;3.90;;
12076;SDS011;12420;42.676;23.262;2023-06-10T09:06:45;9.00;;;4.18;;
12076;SDS011;12420;42.676;23.262;2023-06-10T09:09:15;5.03;;;3.90;;
12076;SDS011;12420;42.676;23.262;2023-06-10T09:11:49;6.63;;;3.70;;
12076;SDS011;12420;42.676;23.262;2023-06-10T09:14:17;5.28;;;3.58;;
12076;SDS011;12420;42.676;23.262;2023-06-10T09:16:46;3.73;;;2.93;;
12076;SDS011;12420;42.676;23.262;2023-06-10T09:19:13;5.60;;;3.60;;
12076;SDS011;12420;42.676;23.262;2023-06-10T09:21:42;5.13;;;3.10;;
12076;SDS011;12420;42.676;23.262;2023-06-10T09:24:08;3.10;;;2.80;;
12076;SDS011;12420;42.676;23.262;2023-06-10T09:26:36;5.53;;;3.40;;
12076;SDS011;12420;42.676;23.262;2023-06-10T09:29:03;3.73;;;3.10;;
12076;SDS011;12420;42.676;23.262;2023-06-10T09:31:31;3.20;;;3.00;;
12076;SDS011;12420;42.676;23.262;2023-06-10T09:34:11;4.33;;;2.90;;
12076;SDS011;12420;42.676;23.262;2023-06-10T09:36:39;3.67;;;3.38;;
12076;SDS011;12420;42.676;23.262;2023-06-10T09:39:12;7.03;;;3.80;;
12076;SDS011;12420;42.676;23.262;2023-06-10T09:41:41;4.70;;;2.90;;
12076;SDS011;12420;42.676;23.262;2023-06-10T09:44:10;4.50;;;3.20;;
12076;SDS011;12420;42.676;23.262;2023-06-10T09:46:39;3.20;;;3.00;;
12076;SDS011;12420;42.676;23.262;2023-06-10T09:49:08;3.47;;;3.17;;
12076;SDS011;12420;42.676;23.262;2023-06-10T09:51:35;3.28;;;3.00;;
12076;SDS011;12420;42.676;23.262;2023-06-10T09:54:02;3.85;;;3.40;;
12076;SDS011;12420;42.676;23.262;2023-06-10T09:56:33;3.65;;;3.40;;
12076;SDS011;12420;42.676;23.262;2023-06-10T09:59:01;4.43;;;3.35;;
12076;SDS011;12420;42.676;23.262;2023-06-10T10:01:29;6.18;;;3.40;;
12076;SDS011;12420;42.676;23.262;2023-06-10T10:03:58;3.50;;;3.30;;
12076;SDS011;12420;42.676;23.262;2023-06-10T10:06:27;3.67;;;3.10;;
12076;SDS011;12420;42.676;23.262;2023-06-10T10:08:54;3.90;;;3.60;;
12076;SDS011;12420;42.676;23.262;2023-06-10T10:11:22;5.03;;;3.70;;
12076;SDS011;12420;42.676;23.262;2023-06-10T10:13:51;5.05;;;3.78;;
12076;SDS011;12420;42.676;23.262;2023-06-10T10:16:19;7.95;;;3.67;;
12076;SDS011;12420;42.676;23.262;2023-06-10T10:18:49;3.88;;;3.55;;
12076;SDS011;12420;42.676;23.262;2023-06-10T10:21:21;5.22;;;3.55;;
12076;SDS011;12420;42.676;23.262;2023-06-10T10:23:52;4.20;;;3.90;;
12076;SDS011;12420;42.676;23.262;2023-06-10T10:26:27;3.92;;;3.63;;
12076;SDS011;12420;42.676;23.262;2023-06-10T10:28:58;3.90;;;3.50;;
12076;SDS011;12420;42.676;23.262;2023-06-10T10:31:32;4.07;;;3.60;;
12076;SDS011;12420;42.676;23.262;2023-06-10T10:34:02;4.25;;;3.70;;
12076;SDS011;12420;42.676;23.262;2023-06-10T10:36:32;3.45;;;3.20;;
12076;SDS011;12420;42.676;23.262;2023-06-10T10:39:02;4.57;;;2.70;;
12076;SDS011;12420;42.676;23.262;2023-06-10T10:41:32;3.35;;;3.13;;
12076;SDS011;12420;42.676;23.262;2023-06-10T10:44:00;3.33;;;3.03;;
12076;SDS011;12420;42.676;23.262;2023-06-10T10:46:30;3.90;;;3.20;;
12076;SDS011;12420;42.676;23.262;2023-06-10T10:49:15;3.42;;;3.10;;
12076;SDS011;12420;42.676;23.262;2023-06-10T10:51:56;3.63;;;2.85;;
12076;SDS011;12420;42.676;23.262;2023-06-10T10:54:31;3.20;;;2.97;;
12076;SDS011;12420;42.676;23.262;2023-06-10T10:59:46;2.95;;;2.75;;
12076;SDS011;12420;42.676;23.262;2023-06-10T11:02:31;4.75;;;3.20;;
12076;SDS011;12420;42.676;23.262;2023-06-10T11:05:05;3.00;;;2.80;;
12076;SDS011;12420;42.676;23.262;2023-06-10T11:07:35;3.22;;;2.92;;
12076;SDS011;12420;42.676;23.262;2023-06-10T11:10:08;3.60;;;3.30;;
12076;SDS011;12420;42.676;23.262;2023-06-10T11:12:42;3.55;;;3.20;;
12076;SDS011;12420;42.676;23.262;2023-06-10T11:15:19;4.93;;;3.70;;
12076;SDS011;12420;42.676;23.262;2023-06-10T11:18:07;4.60;;;3.53;;
12076;SDS011;12420;42.676;23.262;2023-06-10T11:20:50;4.43;;;2.90;;
12076;SDS011;12420;42.676;23.262;2023-06-10T11:23:29;4.60;;;3.28;;
12076;SDS011;12420;42.676;23.262;2023-06-10T11:26:12;6.47;;;3.42;;
12076;SDS011;12420;42.676;23.262;2023-06-10T11:28:41;3.60;;;3.30;;
12076;SDS011;12420;42.676;23.262;2023-06-10T11:31:27;3.83;;;3.22;;
12076;SDS011;12420;42.676;23.262;2023-06-10T11:33:56;3.38;;;3.17;;
12076;SDS011;12420;42.676;23.262;2023-06-10T11:36:25;3.28;;;3.05;;
12076;SDS011;12420;42.676;23.262;2023-06-10T11:38:53;3.38;;;3.08;;
12076;SDS011;12420;42.676;23.262;2023-06-10T11:41:24;3.67;;;3.25;;
12076;SDS011;12420;42.676;23.262;2023-06-10T11:44:01;3.80;;;2.90;;
12076;SDS011;12420;42.676;23.262;2023-06-10T11:46:29;3.53;;;2.90;;
12076;SDS011;12420;42.676;23.262;2023-06-10T11:48:57;4.70;;;3.17;;
12076;SDS011;12420;42.676;23.262;2023-06-10T11:51:25;5.80;;;3.33;;
12076;SDS011;12420;42.676;23.262;2023-06-10T11:53:53;5.93;;;3.30;;
12076;SDS011;12420;42.676;23.262;2023-06-10T11:56:20;3.83;;;3.53;;
12076;SDS011;12420;42.676;23.262;2023-06-10T11:58:53;5.10;;;3.78;;
12076;SDS011;12420;42.676;23.262;2023-06-10T12:01:22;3.70;;;3.35;;
12076;SDS011;12420;42.676;23.262;2023-06-10T12:04:01;5.40;;;3.88;;
12076;SDS011;12420;42.676;23.262;2023-06-10T12:06:37;5.38;;;3.70;;
12076;SDS011;12420;42.676;23.262;2023-06-10T12:09:05;8.60;;;3.63;;
12076;SDS011;12420;42.676;23.262;2023-06-10T12:11:33;4.03;;;3.70;;
12076;SDS011;12420;42.676;23.262;2023-06-10T12:14:02;4.32;;;3.70;;
12076;SDS011;12420;42.676;23.262;2023-06-10T12:16:29;4.60;;;3.55;;
12076;SDS011;12420;42.676;23.262;2023-06-10T12:19:00;4.35;;;3.92;;
12076;SDS011;12420;42.676;23.262;2023-06-10T12:21:28;4.18;;;3.75;;
12076;SDS011;12420;42.676;23.262;2023-06-10T12:23:59;4.38;;;3.67;;
12076;SDS011;12420;42.676;23.262;2023-06-10T12:26:34;4.20;;;3.60;;
12076;SDS011;12420;42.676;23.262;2023-06-10T12:29:04;4.43;;;3.10;;
12076;SDS011;12420;42.676;23.262;2023-06-10T12:31:56;3.38;;;3.08;;
12076;SDS011;12420;42.676;23.262;2023-06-10T12:37:09;3.30;;;3.10;;
12076;SDS011;12420;42.676;23.262;2023-06-10T12:39:39;3.60;;;3.17;;
12076;SDS011;12420;42.676;23.262;2023-06-10T12:42:06;4.65;;;3.58;;
12076;SDS011;12420;42.676;23.262;2023-06-10T12:44:38;3.72;;;2.85;;
12076;SDS011;12420;42.676;23.262;2023-06-10T12:47:09;4.50;;;3.40;;
12076;SDS011;12420;42.676;23.262;2023-06-10T12:49:38;3.88;;;3.58;;
12076;SDS011;12420;42.676;23.262;2023-06-10T12:52:05;3.80;;;3.50;;
12076;SDS011;12420;42.676;23.262;2023-06-10T12:54:33;4.15;;;3.50;;
12076;SDS011;12420;42.676;23.262;2023-06-10T12:57:01;3.60;;;3.30;;
12076;SDS011;12420;42.676;23.262;2023-06-10T12:59:29;6.13;;;3.47;;
12076;SDS011;12420;42.676;23.262;2023-06-10T13:01:58;4.15;;;3.60;;
12076;SDS011;12420;42.676;23.262;2023-06-10T13:04:25;3.78;;;3.40;;
12076;SDS011;12420;42.676;23.262;2023-06-10T13:06:52;4.50;;;3.47;;
12076;SDS011;12420;42.676;23.262;2023-06-10T13:09:19;3.63;;;3.33;;
12076;SDS011;12420;42.676;23.262;2023-06-10T13:11:46;3.22;;;3.03;;
12076;SDS011;12420;42.676;23.262;2023-06-10T13:14:13;5.82;;;3.42;;
12076;SDS011;12420;42.676;23.262;2023-06-10T13:16:40;6.55;;;3.40;;
12076;SDS011;12420;42.676;23.262;2023-06-10T13:19:10;7.28;;;3.42;;
12076;SDS011;12420;42.676;23.262;2023-06-10T13:21:37;5.85;;;4.20;;
12076;SDS011;12420;42.676;23.262;2023-06-10T13:24:03;4.60;;;3.90;;
12076;SDS011;12420;42.676;23.262;2023-06-10T13:26:31;6.03;;;4.00;;
12076;SDS011;12420;42.676;23.262;2023-06-10T13:28:58;4.00;;;3.70;;
12076;SDS011;12420;42.676;23.262;2023-06-10T13:31:28;5.43;;;4.10;;
12076;SDS011;12420;42.676;23.262;2023-06-10T13:33:55;6.83;;;3.60;;
12076;SDS011;12420;42.676;23.262;2023-06-10T13:36:24;5.10;;;4.07;;
12076;SDS011;12420;42.676;23.262;2023-06-10T13:38:51;7.27;;;4.10;;
12076;SDS011;12420;42.676;23.262;2023-06-10T13:41:18;4.53;;;4.13;;
12076;SDS011;12420;42.676;23.262;2023-06-10T13:43:44;5.63;;;4.30;;
12076;SDS011;12420;42.676;23.262;2023-06-10T13:46:11;4.97;;;4.47;;
12076;SDS011;12420;42.676;23.262;2023-06-10T13:48:38;5.00;;;4.33;;
12076;SDS011;12420;42.676;23.262;2023-06-10T13:51:05;4.70;;;4.30;;
12076;SDS011;12420;42.676;23.262;2023-06-10T13:53:33;6.70;;;4.70;;
12076;SDS011;12420;42.676;23.262;2023-06-10T13:56:00;4.90;;;4.10;;
12076;SDS011;12420;42.676;23.262;2023-06-10T13:58:27;5.10;;;4.60;;
12076;SDS011;12420;42.676;23.262;2023-06-10T14:00:54;6.67;;;4.50;;
12076;SDS011;12420;42.676;23.262;2023-06-10T14:03:21;4.80;;;4.30;;
12076;SDS011;12420;42.676;23.262;2023-06-10T14:05:49;4.50;;;4.10;;
12076;SDS011;12420;42.676;23.262;2023-06-10T14:08:18;5.73;;;4.70;;
12076;SDS011;12420;42.676;23.262;2023-06-10T14:10:47;4.87;;;4.43;;
12076;SDS011;12420;42.676;23.262;2023-06-10T14:13:16;4.87;;;4.30;;
12076;SDS011;12420;42.676;23.262;2023-06-10T14:15:43;4.87;;;4.37;;
12076;SDS011;12420;42.676;23.262;2023-06-10T14:18:12;4.50;;;4.20;;
12076;SDS011;12420;42.676;23.262;2023-06-10T14:20:39;5.87;;;3.93;;
12076;SDS011;12420;42.676;23.262;2023-06-10T14:23:06;4.30;;;4.00;;
12076;SDS011;12420;42.676;23.262;2023-06-10T14:25:33;6.90;;;3.80;;
12076;SDS011;12420;42.676;23.262;2023-06-10T14:28:01;4.37;;;3.97;;
12076;SDS011;12420;42.676;23.262;2023-06-10T14:30:28;4.40;;;4.00;;
12076;SDS011;12420;42.676;23.262;2023-06-10T14:32:55;5.50;;;4.83;;
12076;SDS011;12420;42.676;23.262;2023-06-10T14:35:23;5.07;;;4.57;;
12076;SDS011;12420;42.676;23.262;2023-06-10T14:37:50;4.83;;;4.40;;
12076;SDS011;12420;42.676;23.262;2023-06-10T14:40:19;5.43;;;4.33;;
12076;SDS011;12420;42.676;23.262;2023-06-10T14:42:48;4.83;;;4.00;;
12076;SDS011;12420;42.676;23.262;2023-06-10T14:45:17;4.20;;;3.80;;
12076;SDS011;12420;42.676;23.262;2023-06-10T14:47:44;3.50;;;3.20;;